Van Cleve, Kentucky
Current Conditions -  °F | °C
As of 1:15 PM on Friday 21 Nov 2014 (Local Time) from KCEY Reporting Station
Broken Clouds Broken Clouds  
Wind Chill: 41°   Ceiling: 8000
Heat Index: 46°   Visibility: 10mi
Dew Point: 23°   Wind: 12mph
Humidity: 40%   Direction: 90°E
Pressure: 30.36"   Gusts: NA
Location:  36.618°N, 88.2562°W
Report Text: KCEY 211915Z AUTO 09010KT 10SM BKN080 08/M05 A3036 RMK AO1
Loading
Personal Weather Stations






























Interactive Weather Map New forecast layout! Learn more

10-Day Weather Forecast

Advertisements
Track Severe Weather on mobile